createdAt,value
2022-10-30T00:02:28.445Z,101731.84
2022-10-30T00:07:21.702Z,101856.44
2022-10-30T00:12:16.308Z,101711.13
2022-10-30T00:17:09.501Z,101815.44
2022-10-30T00:26:55.222Z,101749.88
2022-10-30T00:31:49.842Z,101802.97
2022-10-30T00:36:43.076Z,101832.53
2022-10-30T00:41:37.235Z,101829.56
2022-10-30T00:46:34.299Z,101789.53
2022-10-30T00:51:30.335Z,101730.91
2022-10-30T00:56:25.480Z,101832.22
2022-10-30T01:01:23.015Z,101810.84
2022-10-30T01:06:24.042Z,101777.03
2022-10-30T01:11:22.657Z,101716.13
2022-10-30T01:16:39.806Z,101747.91
2022-10-30T01:21:49.080Z,101799.00
2022-10-30T01:27:04.518Z,101754.69
2022-10-30T01:32:13.895Z,101781.78
2022-10-30T01:37:19.363Z,101790.38
2022-10-30T01:42:48.440Z,101786.56
2022-10-30T01:47:58.971Z,101755.38
2022-10-30T01:53:04.984Z,101742.25
2022-10-30T01:58:05.840Z,101643.47
2022-10-30T02:02:59.730Z,101782.38
2022-10-30T02:07:53.626Z,101726.75
2022-10-30T02:12:47.113Z,101587.97
2022-10-30T02:17:41.878Z,101662.00
2022-10-30T02:22:37.668Z,101705.72
2022-10-30T02:27:30.930Z,101759.44
2022-10-30T02:32:24.200Z,101738.91
2022-10-30T02:37:19.724Z,101771.91
2022-10-30T02:42:14.383Z,101777.91
2022-10-30T02:47:09.346Z,101742.34
2022-10-30T02:52:02.634Z,101760.97
2022-10-30T02:56:55.920Z,101660.75
2022-10-30T03:01:50.627Z,101723.59
2022-10-30T03:06:43.908Z,101685.44
2022-10-30T03:11:37.366Z,101746.91
2022-10-30T03:16:31.122Z,101706.91
2022-10-30T03:21:28.012Z,101726.09
2022-10-30T03:26:21.961Z,101687.31
2022-10-30T03:31:23.589Z,101742.50
2022-10-30T03:36:34.979Z,101738.78
2022-10-30T03:41:28.663Z,101694.84
2022-10-30T03:46:22.010Z,101723.38
2022-10-30T03:51:16.753Z,101684.44
2022-10-30T03:56:14.277Z,101736.53
2022-10-30T04:01:14.716Z,101690.25
2022-10-30T04:06:14.648Z,101725.22
2022-10-30T04:11:08.017Z,101553.59
2022-10-30T04:16:03.170Z,101711.75
2022-10-30T04:20:57.002Z,101666.41
2022-10-30T04:25:53.062Z,101714.81
2022-10-30T04:30:47.117Z,101635.13
2022-10-30T04:35:44.377Z,101598.75
2022-10-30T04:40:43.380Z,101696.03
2022-10-30T04:45:39.249Z,101522.59
2022-10-30T04:50:33.703Z,101599.97
2022-10-30T04:55:28.827Z,101694.03
2022-10-30T05:00:22.232Z,101606.66
2022-10-30T05:05:15.581Z,101631.66
2022-10-30T05:10:09.785Z,101703.75
2022-10-30T05:15:05.106Z,101740.28
2022-10-30T05:20:00.520Z,101749.47
2022-10-30T05:24:53.789Z,101612.03
2022-10-30T05:29:48.351Z,101669.59
2022-10-30T05:34:43.960Z,101726.91
2022-10-30T05:39:38.331Z,101761.53
2022-10-30T05:44:59.191Z,101752.09
2022-10-30T05:49:53.871Z,101764.38
2022-10-30T05:54:50.419Z,101763.22
2022-10-30T06:00:02.139Z,101737.59
2022-10-30T06:04:58.903Z,101747.66
2022-10-30T06:09:52.705Z,101740.47
2022-10-30T06:15:06.626Z,101771.28
2022-10-30T06:20:01.468Z,101729.53
2022-10-30T06:25:14.629Z,101771.56
2022-10-30T06:30:37.002Z,101745.84
2022-10-30T06:35:32.500Z,101759.00
2022-10-30T06:40:27.286Z,101718.03
2022-10-30T06:45:38.947Z,101697.22
2022-10-30T06:50:34.549Z,101731.72
2022-10-30T06:55:27.848Z,101712.47
2022-10-30T07:00:57.091Z,101752.28
2022-10-30T07:06:10.447Z,101724.13
2022-10-30T07:11:04.359Z,101739.28
2022-10-30T07:16:15.987Z,101756.22
2022-10-30T07:21:13.645Z,101750.75
2022-10-30T07:26:07.825Z,101752.16
2022-10-30T07:31:09.778Z,101731.69
2022-10-30T07:36:27.168Z,101731.81
2022-10-30T07:41:52.457Z,101749.28
2022-10-30T07:47:08.702Z,101744.31
2022-10-30T07:52:32.392Z,101701.44
2022-10-30T07:57:26.201Z,101733.41
2022-10-30T08:02:51.838Z,101727.06
2022-10-30T08:08:06.292Z,101716.81
2022-10-30T08:12:59.555Z,101661.38
2022-10-30T08:17:53.328Z,101666.31
2022-10-30T08:22:48.394Z,101698.72
2022-10-30T08:27:51.430Z,101691.06
2022-10-30T08:32:45.061Z,101694.81
2022-10-30T08:37:57.857Z,101646.81
2022-10-30T08:42:53.491Z,101680.72
2022-10-30T08:47:48.501Z,101676.91
2022-10-30T08:52:42.449Z,101676.41
2022-10-30T08:57:37.491Z,101645.91
2022-10-30T09:02:32.091Z,101663.00
2022-10-30T09:07:51.507Z,101636.47
2022-10-30T09:13:03.378Z,101647.50
2022-10-30T09:17:59.919Z,101606.38
2022-10-30T09:22:54.310Z,101628.56
2022-10-30T09:27:48.296Z,101643.34
2022-10-30T09:32:42.953Z,101617.44
2022-10-30T09:37:44.374Z,101640.75
2022-10-30T09:42:45.867Z,101614.47
2022-10-30T09:47:53.839Z,101632.53
2022-10-30T09:53:03.580Z,101624.25
2022-10-30T09:58:10.957Z,101575.66
2022-10-30T10:03:19.006Z,101593.00
2022-10-30T10:08:43.281Z,101602.09
2022-10-30T10:14:01.842Z,101603.00
2022-10-30T10:19:01.715Z,101598.25
2022-10-30T10:23:57.661Z,101592.72
2022-10-30T10:29:01.746Z,101564.22
2022-10-30T10:34:06.734Z,101578.31
2022-10-30T10:39:28.796Z,101568.63
2022-10-30T10:44:34.537Z,101558.69
2022-10-30T10:49:41.243Z,101544.19
2022-10-30T10:54:40.343Z,101543.47
2022-10-30T10:59:37.715Z,101531.69
2022-10-30T11:04:36.985Z,101471.38
2022-10-30T11:09:30.256Z,101514.31
2022-10-30T11:14:26.554Z,101441.84
2022-10-30T11:19:20.930Z,101471.53
2022-10-30T11:24:31.487Z,101469.19
2022-10-30T11:29:29.160Z,101465.88
2022-10-30T11:34:30.128Z,101478.88
2022-10-30T11:39:24.875Z,101454.13
2022-10-30T11:44:18.088Z,101454.31
2022-10-30T11:49:29.673Z,101421.63
2022-10-30T11:54:23.581Z,101455.66
2022-10-30T11:59:20.873Z,101355.84
2022-10-30T12:04:16.848Z,101407.34
2022-10-30T12:09:16.031Z,101397.06
2022-10-30T12:14:18.765Z,101442.06
2022-10-30T12:19:16.480Z,101429.75
2022-10-30T12:24:20.368Z,101434.41
2022-10-30T12:29:17.904Z,101433.59
2022-10-30T12:34:24.046Z,101413.31
2022-10-30T12:39:28.427Z,101398.53
2022-10-30T12:44:28.475Z,101431.25
2022-10-30T12:49:26.825Z,101424.78
2022-10-30T12:54:29.453Z,101393.25
2022-10-30T12:59:31.880Z,101389.09
2022-10-30T13:04:27.964Z,101341.25
2022-10-30T13:09:26.462Z,101397.22
2022-10-30T13:14:27.559Z,101410.16
2022-10-30T13:19:20.718Z,101369.31
2022-10-30T13:24:19.887Z,101364.47
2022-10-30T13:29:25.289Z,101415.13
2022-10-30T13:34:32.528Z,101410.00
2022-10-30T13:39:32.396Z,101379.25
2022-10-30T13:44:40.089Z,101381.25
2022-10-30T13:50:05.940Z,101359.47
2022-10-30T13:55:03.071Z,101384.84
2022-10-30T14:00:17.844Z,101379.00
2022-10-30T14:05:21.128Z,101391.44
2022-10-30T14:10:21.471Z,101320.00
2022-10-30T14:15:27.610Z,101391.06
2022-10-30T14:20:27.950Z,101394.78
2022-10-30T14:25:21.209Z,101371.88
2022-10-30T14:30:21.496Z,101394.94
2022-10-30T14:35:36.448Z,101363.16
2022-10-30T14:40:39.884Z,101373.69
2022-10-30T14:45:43.631Z,101384.22
2022-10-30T14:50:59.261Z,101379.47
2022-10-30T14:56:36.383Z,101312.66
2022-10-30T15:01:51.708Z,101297.28
2022-10-30T15:06:59.154Z,101195.66
2022-10-30T15:12:26.903Z,101210.94
2022-10-30T15:17:35.021Z,101222.41
2022-10-30T15:23:00.559Z,101277.94
2022-10-30T15:28:05.681Z,101181.47
2022-10-30T15:33:03.686Z,101323.81
2022-10-30T15:38:02.465Z,101314.94
2022-10-30T15:42:57.832Z,101369.69
2022-10-30T15:48:00.482Z,101313.31
2022-10-30T15:59:53.310Z,101154.09
2022-10-30T16:04:59.349Z,101310.00
2022-10-30T16:10:26.435Z,101150.41
2022-10-30T16:22:23.577Z,101374.34
2022-10-30T16:27:28.569Z,101192.00
2022-10-30T16:32:28.682Z,101365.34
2022-10-30T16:37:38.005Z,101325.16
2022-10-30T16:42:54.941Z,101215.47
2022-10-30T16:54:44.423Z,101183.09
2022-10-30T17:06:05.509Z,101209.28
2022-10-30T17:11:09.170Z,101312.66
2022-10-30T17:17:15.572Z,101350.91
2022-10-30T17:22:24.287Z,101398.84
2022-10-30T17:27:52.177Z,101273.09
2022-10-30T17:33:52.143Z,101350.06
2022-10-30T17:44:58.131Z,101292.88
2022-10-30T17:49:52.130Z,101415.56
2022-10-30T18:01:55.526Z,101373.91
2022-10-30T18:07:13.403Z,101397.34
2022-10-30T18:18:43.412Z,101233.56
2022-10-30T18:32:26.487Z,101292.59
2022-10-30T18:45:05.563Z,101364.13
2022-10-30T19:01:33.452Z,101409.13
2022-10-30T19:06:34.733Z,101416.03
2022-10-30T19:11:33.153Z,101229.59
2022-10-30T19:16:38.174Z,101391.75
2022-10-30T19:21:37.815Z,101440.59
2022-10-30T19:26:35.191Z,101446.09
2022-10-30T19:31:30.466Z,101430.97
2022-10-30T19:36:34.226Z,101320.75
2022-10-30T19:41:32.526Z,101271.97
2022-10-30T19:46:30.481Z,101305.94
2022-10-30T19:51:23.975Z,101389.97
2022-10-30T19:56:23.176Z,101386.28
2022-10-30T20:01:19.312Z,101316.00
2022-10-30T20:06:17.321Z,101386.28
2022-10-30T20:11:10.999Z,101311.06
2022-10-30T20:16:05.394Z,101425.00
2022-10-30T20:21:06.100Z,101384.09
2022-10-30T20:26:07.870Z,101420.03
2022-10-30T20:31:03.343Z,101239.34
2022-10-30T20:35:57.624Z,101433.53
2022-10-30T20:40:54.499Z,101247.47
2022-10-30T20:45:49.441Z,101382.34
2022-10-30T20:50:50.817Z,101424.22
2022-10-30T20:55:46.699Z,101159.94
2022-10-30T21:00:40.233Z,101240.34
2022-10-30T21:05:46.142Z,101325.97
2022-10-30T21:10:42.627Z,101241.22
2022-10-30T21:15:40.392Z,101324.78
2022-10-30T21:20:35.054Z,101324.00
2022-10-30T21:25:28.858Z,101445.59
2022-10-30T21:30:24.371Z,101394.25
2022-10-30T21:35:19.035Z,101440.50
2022-10-30T21:40:22.963Z,101440.41
2022-10-30T21:45:16.484Z,101438.59
2022-10-30T21:50:12.648Z,101315.59
2022-10-30T21:55:10.463Z,101444.34
2022-10-30T22:00:11.441Z,101435.22
2022-10-30T22:05:12.393Z,101247.91
2022-10-30T22:10:07.615Z,101364.59
2022-10-30T22:15:00.940Z,101210.06
2022-10-30T22:19:58.317Z,101397.50
2022-10-30T22:24:51.611Z,101316.53
2022-10-30T22:29:44.959Z,101317.50
2022-10-30T22:34:38.396Z,101263.53
2022-10-30T22:39:35.200Z,101252.22
2022-10-30T22:44:28.749Z,101490.34
2022-10-30T22:49:38.018Z,101494.44
2022-10-30T22:54:47.035Z,101240.22
2022-10-30T22:59:49.744Z,101427.38
2022-10-30T23:04:46.061Z,101426.00
2022-10-30T23:09:55.071Z,101354.94
2022-10-30T23:14:59.044Z,101231.84
2022-10-30T23:20:16.508Z,101480.19
2022-10-30T23:25:12.890Z,101405.81
2022-10-30T23:30:10.575Z,101318.53
2022-10-30T23:35:08.743Z,101481.00
2022-10-30T23:40:07.556Z,101310.66
2022-10-30T23:45:04.315Z,101430.94
2022-10-30T23:50:08.296Z,101246.56
2022-10-30T23:55:34.203Z,101428.63
